sensor_id;sensor_type;location;lat;lon;timestamp;P1;durP1;ratioP1;P2;durP2;ratioP2
71366;SDS011;60030;52.274;8.040;2023-05-02T00:00:29;20.97;;;12.90;;
71366;SDS011;60030;52.274;8.040;2023-05-02T00:02:57;21.40;;;14.43;;
71366;SDS011;60030;52.274;8.040;2023-05-02T00:05:24;24.90;;;14.83;;
71366;SDS011;60030;52.274;8.040;2023-05-02T00:07:53;21.37;;;14.70;;
71366;SDS011;60030;52.274;8.040;2023-05-02T00:10:20;21.17;;;14.80;;
71366;SDS011;60030;52.274;8.040;2023-05-02T00:12:47;22.33;;;14.67;;
71366;SDS011;60030;52.274;8.040;2023-05-02T00:15:14;20.27;;;15.20;;
71366;SDS011;60030;52.274;8.040;2023-05-02T00:17:41;21.50;;;14.93;;
71366;SDS011;60030;52.274;8.040;2023-05-02T00:20:09;26.47;;;16.40;;
71366;SDS011;60030;52.274;8.040;2023-05-02T00:22:37;24.87;;;17.20;;
71366;SDS011;60030;52.274;8.040;2023-05-02T00:25:07;26.67;;;18.73;;
71366;SDS011;60030;52.274;8.040;2023-05-02T00:27:40;28.27;;;18.77;;
71366;SDS011;60030;52.274;8.040;2023-05-02T00:30:07;30.77;;;18.30;;
71366;SDS011;60030;52.274;8.040;2023-05-02T00:32:35;30.17;;;17.97;;
71366;SDS011;60030;52.274;8.040;2023-05-02T00:35:02;27.37;;;17.67;;
71366;SDS011;60030;52.274;8.040;2023-05-02T00:37:30;24.77;;;16.50;;
71366;SDS011;60030;52.274;8.040;2023-05-02T00:39:57;25.47;;;16.03;;
71366;SDS011;60030;52.274;8.040;2023-05-02T00:42:26;26.90;;;17.33;;
71366;SDS011;60030;52.274;8.040;2023-05-02T00:44:57;24.00;;;15.67;;
71366;SDS011;60030;52.274;8.040;2023-05-02T00:47:24;24.93;;;16.13;;
71366;SDS011;60030;52.274;8.040;2023-05-02T00:49:51;25.17;;;16.10;;
71366;SDS011;60030;52.274;8.040;2023-05-02T00:52:18;22.63;;;14.73;;
71366;SDS011;60030;52.274;8.040;2023-05-02T00:54:46;26.80;;;15.53;;
71366;SDS011;60030;52.274;8.040;2023-05-02T00:57:13;25.07;;;15.07;;
71366;SDS011;60030;52.274;8.040;2023-05-02T00:59:42;25.37;;;14.57;;
71366;SDS011;60030;52.274;8.040;2023-05-02T01:02:10;24.37;;;14.73;;
71366;SDS011;60030;52.274;8.040;2023-05-02T01:04:54;27.53;;;15.30;;
71366;SDS011;60030;52.274;8.040;2023-05-02T01:07:30;24.83;;;14.77;;
71366;SDS011;60030;52.274;8.040;2023-05-02T01:10:08;24.10;;;14.83;;
71366;SDS011;60030;52.274;8.040;2023-05-02T01:12:46;26.00;;;14.80;;
71366;SDS011;60030;52.274;8.040;2023-05-02T01:15:21;28.07;;;15.27;;
71366;SDS011;60030;52.274;8.040;2023-05-02T01:17:49;27.63;;;16.87;;
71366;SDS011;60030;52.274;8.040;2023-05-02T01:20:19;23.83;;;14.83;;
71366;SDS011;60030;52.274;8.040;2023-05-02T01:22:49;27.97;;;16.37;;
71366;SDS011;60030;52.274;8.040;2023-05-02T01:25:22;29.33;;;17.43;;
71366;SDS011;60030;52.274;8.040;2023-05-02T01:27:56;27.33;;;17.03;;
71366;SDS011;60030;52.274;8.040;2023-05-02T01:30:34;30.97;;;17.63;;
71366;SDS011;60030;52.274;8.040;2023-05-02T01:33:04;28.77;;;16.80;;
71366;SDS011;60030;52.274;8.040;2023-05-02T01:35:35;31.80;;;17.77;;
71366;SDS011;60030;52.274;8.040;2023-05-02T01:38:03;32.27;;;16.77;;
71366;SDS011;60030;52.274;8.040;2023-05-02T01:40:32;28.30;;;17.27;;
71366;SDS011;60030;52.274;8.040;2023-05-02T01:43:02;25.60;;;16.13;;
71366;SDS011;60030;52.274;8.040;2023-05-02T01:45:35;26.77;;;14.63;;
71366;SDS011;60030;52.274;8.040;2023-05-02T01:48:04;21.33;;;13.67;;
71366;SDS011;60030;52.274;8.040;2023-05-02T01:50:32;27.30;;;15.20;;
71366;SDS011;60030;52.274;8.040;2023-05-02T01:52:59;20.00;;;13.07;;
71366;SDS011;60030;52.274;8.040;2023-05-02T01:55:30;23.03;;;13.47;;
71366;SDS011;60030;52.274;8.040;2023-05-02T01:58:00;22.60;;;13.20;;
71366;SDS011;60030;52.274;8.040;2023-05-02T02:00:28;21.37;;;13.47;;
71366;SDS011;60030;52.274;8.040;2023-05-02T02:02:59;24.77;;;13.70;;
71366;SDS011;60030;52.274;8.040;2023-05-02T02:05:27;25.23;;;14.53;;
71366;SDS011;60030;52.274;8.040;2023-05-02T02:07:55;23.43;;;13.23;;
71366;SDS011;60030;52.274;8.040;2023-05-02T02:10:22;25.10;;;13.30;;
71366;SDS011;60030;52.274;8.040;2023-05-02T02:12:52;19.57;;;12.07;;
71366;SDS011;60030;52.274;8.040;2023-05-02T02:15:26;22.47;;;12.20;;
71366;SDS011;60030;52.274;8.040;2023-05-02T02:17:56;24.13;;;12.90;;
71366;SDS011;60030;52.274;8.040;2023-05-02T02:20:27;21.97;;;12.73;;
71366;SDS011;60030;52.274;8.040;2023-05-02T02:22:56;21.60;;;13.70;;
71366;SDS011;60030;52.274;8.040;2023-05-02T02:25:26;24.20;;;13.10;;
71366;SDS011;60030;52.274;8.040;2023-05-02T02:27:53;23.37;;;13.80;;
71366;SDS011;60030;52.274;8.040;2023-05-02T02:30:22;23.63;;;13.87;;
71366;SDS011;60030;52.274;8.040;2023-05-02T02:32:49;23.93;;;13.87;;
71366;SDS011;60030;52.274;8.040;2023-05-02T02:35:18;23.43;;;14.27;;
71366;SDS011;60030;52.274;8.040;2023-05-02T02:37:47;24.07;;;13.63;;
71366;SDS011;60030;52.274;8.040;2023-05-02T02:40:28;25.50;;;14.00;;
71366;SDS011;60030;52.274;8.040;2023-05-02T02:43:02;26.30;;;14.50;;
71366;SDS011;60030;52.274;8.040;2023-05-02T02:45:37;25.07;;;13.70;;
71366;SDS011;60030;52.274;8.040;2023-05-02T02:48:16;22.67;;;13.23;;
71366;SDS011;60030;52.274;8.040;2023-05-02T02:50:56;26.63;;;14.73;;
71366;SDS011;60030;52.274;8.040;2023-05-02T02:53:32;23.83;;;14.13;;
71366;SDS011;60030;52.274;8.040;2023-05-02T02:56:05;24.00;;;13.73;;
71366;SDS011;60030;52.274;8.040;2023-05-02T02:58:42;25.33;;;13.90;;
71366;SDS011;60030;52.274;8.040;2023-05-02T03:01:14;25.17;;;14.23;;
71366;SDS011;60030;52.274;8.040;2023-05-02T03:03:45;27.10;;;14.83;;
71366;SDS011;60030;52.274;8.040;2023-05-02T03:06:14;27.30;;;14.90;;
71366;SDS011;60030;52.274;8.040;2023-05-02T03:08:43;24.13;;;14.53;;
71366;SDS011;60030;52.274;8.040;2023-05-02T03:11:15;27.53;;;14.37;;
71366;SDS011;60030;52.274;8.040;2023-05-02T03:13:43;26.67;;;14.73;;
71366;SDS011;60030;52.274;8.040;2023-05-02T03:16:26;28.57;;;15.70;;
71366;SDS011;60030;52.274;8.040;2023-05-02T03:18:58;27.53;;;14.60;;
71366;SDS011;60030;52.274;8.040;2023-05-02T03:21:27;29.67;;;13.97;;
71366;SDS011;60030;52.274;8.040;2023-05-02T03:23:56;26.73;;;15.03;;
71366;SDS011;60030;52.274;8.040;2023-05-02T03:26:24;27.33;;;14.70;;
71366;SDS011;60030;52.274;8.040;2023-05-02T03:28:51;27.43;;;14.50;;
71366;SDS011;60030;52.274;8.040;2023-05-02T03:31:25;24.70;;;13.60;;
71366;SDS011;60030;52.274;8.040;2023-05-02T03:33:53;22.87;;;13.83;;
71366;SDS011;60030;52.274;8.040;2023-05-02T03:36:21;20.00;;;11.93;;
71366;SDS011;60030;52.274;8.040;2023-05-02T03:38:53;17.57;;;10.57;;
71366;SDS011;60030;52.274;8.040;2023-05-02T03:41:20;16.73;;;10.80;;
71366;SDS011;60030;52.274;8.040;2023-05-02T03:43:54;17.10;;;10.83;;
71366;SDS011;60030;52.274;8.040;2023-05-02T03:46:24;16.70;;;9.37;;
71366;SDS011;60030;52.274;8.040;2023-05-02T03:48:53;14.67;;;8.60;;
71366;SDS011;60030;52.274;8.040;2023-05-02T03:51:22;13.77;;;8.07;;
71366;SDS011;60030;52.274;8.040;2023-05-02T03:53:54;10.13;;;6.80;;
71366;SDS011;60030;52.274;8.040;2023-05-02T03:56:21;11.43;;;6.47;;
71366;SDS011;60030;52.274;8.040;2023-05-02T03:58:59;10.17;;;5.97;;
71366;SDS011;60030;52.274;8.040;2023-05-02T04:01:26;8.13;;;5.07;;
71366;SDS011;60030;52.274;8.040;2023-05-02T04:03:55;8.47;;;5.10;;
71366;SDS011;60030;52.274;8.040;2023-05-02T04:06:24;8.80;;;5.60;;
71366;SDS011;60030;52.274;8.040;2023-05-02T04:08:59;6.93;;;4.43;;
71366;SDS011;60030;52.274;8.040;2023-05-02T04:11:33;5.57;;;3.60;;
71366;SDS011;60030;52.274;8.040;2023-05-02T04:14:02;5.93;;;4.00;;
71366;SDS011;60030;52.274;8.040;2023-05-02T04:16:29;5.60;;;3.70;;
71366;SDS011;60030;52.274;8.040;2023-05-02T04:18:56;4.07;;;3.03;;
71366;SDS011;60030;52.274;8.040;2023-05-02T04:21:25;3.33;;;2.83;;
71366;SDS011;60030;52.274;8.040;2023-05-02T04:23:52;3.73;;;2.63;;
71366;SDS011;60030;52.274;8.040;2023-05-02T04:26:20;4.03;;;2.87;;
71366;SDS011;60030;52.274;8.040;2023-05-02T04:28:54;4.27;;;2.93;;
71366;SDS011;60030;52.274;8.040;2023-05-02T04:31:21;2.93;;;2.60;;
71366;SDS011;60030;52.274;8.040;2023-05-02T04:33:51;4.07;;;2.83;;
71366;SDS011;60030;52.274;8.040;2023-05-02T04:36:23;5.13;;;3.60;;
71366;SDS011;60030;52.274;8.040;2023-05-02T04:38:53;4.70;;;2.90;;
71366;SDS011;60030;52.274;8.040;2023-05-02T04:41:22;3.37;;;2.87;;
71366;SDS011;60030;52.274;8.040;2023-05-02T04:43:55;5.00;;;3.40;;
71366;SDS011;60030;52.274;8.040;2023-05-02T04:46:23;4.73;;;3.13;;
71366;SDS011;60030;52.274;8.040;2023-05-02T04:48:50;4.27;;;3.20;;
71366;SDS011;60030;52.274;8.040;2023-05-02T04:51:18;5.50;;;3.50;;
71366;SDS011;60030;52.274;8.040;2023-05-02T04:53:47;6.53;;;3.50;;
71366;SDS011;60030;52.274;8.040;2023-05-02T04:56:14;6.33;;;3.80;;
71366;SDS011;60030;52.274;8.040;2023-05-02T04:58:43;5.00;;;3.40;;
71366;SDS011;60030;52.274;8.040;2023-05-02T05:01:11;6.63;;;3.50;;
71366;SDS011;60030;52.274;8.040;2023-05-02T05:03:39;7.70;;;4.30;;
71366;SDS011;60030;52.274;8.040;2023-05-02T05:06:07;6.33;;;3.87;;
71366;SDS011;60030;52.274;8.040;2023-05-02T05:08:34;6.10;;;3.77;;
71366;SDS011;60030;52.274;8.040;2023-05-02T05:11:02;4.77;;;3.23;;
71366;SDS011;60030;52.274;8.040;2023-05-02T05:13:30;5.07;;;3.03;;
71366;SDS011;60030;52.274;8.040;2023-05-02T05:15:58;3.47;;;2.07;;
71366;SDS011;60030;52.274;8.040;2023-05-02T05:18:29;2.20;;;1.40;;
71366;SDS011;60030;52.274;8.040;2023-05-02T05:20:58;2.83;;;1.43;;
71366;SDS011;60030;52.274;8.040;2023-05-02T05:23:27;2.30;;;1.10;;
71366;SDS011;60030;52.274;8.040;2023-05-02T05:25:54;2.67;;;1.20;;
71366;SDS011;60030;52.274;8.040;2023-05-02T05:28:21;3.37;;;1.60;;
71366;SDS011;60030;52.274;8.040;2023-05-02T05:30:49;4.37;;;1.57;;
71366;SDS011;60030;52.274;8.040;2023-05-02T05:33:21;3.00;;;1.50;;
71366;SDS011;60030;52.274;8.040;2023-05-02T05:35:48;2.70;;;1.60;;
71366;SDS011;60030;52.274;8.040;2023-05-02T05:38:16;3.60;;;1.73;;
71366;SDS011;60030;52.274;8.040;2023-05-02T05:40:47;2.27;;;1.40;;
71366;SDS011;60030;52.274;8.040;2023-05-02T05:43:15;2.57;;;1.80;;
71366;SDS011;60030;52.274;8.040;2023-05-02T05:45:43;3.13;;;1.37;;
71366;SDS011;60030;52.274;8.040;2023-05-02T05:48:11;4.93;;;1.63;;
71366;SDS011;60030;52.274;8.040;2023-05-02T05:50:43;7.17;;;1.80;;
71366;SDS011;60030;52.274;8.040;2023-05-02T05:53:11;7.33;;;2.43;;
71366;SDS011;60030;52.274;8.040;2023-05-02T05:55:40;3.73;;;1.67;;
71366;SDS011;60030;52.274;8.040;2023-05-02T05:58:08;6.37;;;1.90;;
71366;SDS011;60030;52.274;8.040;2023-05-02T06:00:36;5.80;;;1.80;;
71366;SDS011;60030;52.274;8.040;2023-05-02T06:03:03;6.13;;;2.13;;
71366;SDS011;60030;52.274;8.040;2023-05-02T06:05:31;8.90;;;2.73;;
71366;SDS011;60030;52.274;8.040;2023-05-02T06:08:00;6.83;;;2.60;;
71366;SDS011;60030;52.274;8.040;2023-05-02T06:10:27;7.83;;;3.00;;
71366;SDS011;60030;52.274;8.040;2023-05-02T06:12:56;8.10;;;2.63;;
71366;SDS011;60030;52.274;8.040;2023-05-02T06:15:28;5.93;;;2.63;;
71366;SDS011;60030;52.274;8.040;2023-05-02T06:17:55;11.33;;;3.20;;
71366;SDS011;60030;52.274;8.040;2023-05-02T06:20:22;7.63;;;3.40;;
71366;SDS011;60030;52.274;8.040;2023-05-02T06:22:50;7.17;;;3.53;;
71366;SDS011;60030;52.274;8.040;2023-05-02T06:25:19;15.23;;;6.60;;
71366;SDS011;60030;52.274;8.040;2023-05-02T06:27:46;10.03;;;3.73;;
71366;SDS011;60030;52.274;8.040;2023-05-02T06:30:13;13.70;;;5.77;;
71366;SDS011;60030;52.274;8.040;2023-05-02T06:32:40;13.43;;;3.13;;
71366;SDS011;60030;52.274;8.040;2023-05-02T06:35:08;10.23;;;3.90;;
71366;SDS011;60030;52.274;8.040;2023-05-02T06:37:36;7.07;;;2.87;;
71366;SDS011;60030;52.274;8.040;2023-05-02T06:40:04;8.30;;;3.17;;
71366;SDS011;60030;52.274;8.040;2023-05-02T06:42:33;11.87;;;3.80;;
71366;SDS011;60030;52.274;8.040;2023-05-02T06:45:00;12.10;;;3.50;;
71366;SDS011;60030;52.274;8.040;2023-05-02T06:47:27;14.60;;;3.87;;
71366;SDS011;60030;52.274;8.040;2023-05-02T06:49:55;9.47;;;3.33;;
71366;SDS011;60030;52.274;8.040;2023-05-02T06:52:22;11.00;;;3.63;;
71366;SDS011;60030;52.274;8.040;2023-05-02T06:54:49;13.77;;;3.57;;
71366;SDS011;60030;52.274;8.040;2023-05-02T06:57:16;14.00;;;4.23;;
71366;SDS011;60030;52.274;8.040;2023-05-02T06:59:44;13.47;;;3.77;;
71366;SDS011;60030;52.274;8.040;2023-05-02T07:02:11;10.57;;;3.63;;
71366;SDS011;60030;52.274;8.040;2023-05-02T07:04:39;9.10;;;3.47;;
71366;SDS011;60030;52.274;8.040;2023-05-02T07:07:06;10.97;;;3.73;;
71366;SDS011;60030;52.274;8.040;2023-05-02T07:09:33;10.33;;;3.47;;
71366;SDS011;60030;52.274;8.040;2023-05-02T07:12:00;7.07;;;3.70;;
71366;SDS011;60030;52.274;8.040;2023-05-02T07:14:28;14.30;;;4.63;;
71366;SDS011;60030;52.274;8.040;2023-05-02T07:16:56;9.63;;;3.37;;
71366;SDS011;60030;52.274;8.040;2023-05-02T07:19:23;12.57;;;4.23;;
71366;SDS011;60030;52.274;8.040;2023-05-02T07:21:50;14.70;;;3.53;;
71366;SDS011;60030;52.274;8.040;2023-05-02T07:24:17;12.23;;;3.47;;
71366;SDS011;60030;52.274;8.040;2023-05-02T07:26:44;11.00;;;3.13;;
71366;SDS011;60030;52.274;8.040;2023-05-02T07:29:12;13.67;;;3.40;;
71366;SDS011;60030;52.274;8.040;2023-05-02T07:31:39;8.87;;;3.00;;
71366;SDS011;60030;52.274;8.040;2023-05-02T07:34:07;16.80;;;4.50;;
71366;SDS011;60030;52.274;8.040;2023-05-02T07:36:34;11.73;;;3.40;;
71366;SDS011;60030;52.274;8.040;2023-05-02T07:39:01;14.80;;;3.50;;
71366;SDS011;60030;52.274;8.040;2023-05-02T07:41:29;16.97;;;3.90;;
71366;SDS011;60030;52.274;8.040;2023-05-02T07:43:56;10.30;;;3.60;;
71366;SDS011;60030;52.274;8.040;2023-05-02T07:46:23;10.50;;;3.03;;
71366;SDS011;60030;52.274;8.040;2023-05-02T07:48:50;8.37;;;2.37;;
71366;SDS011;60030;52.274;8.040;2023-05-02T07:51:19;10.20;;;2.20;;
71366;SDS011;60030;52.274;8.040;2023-05-02T07:53:49;7.13;;;2.30;;
71366;SDS011;60030;52.274;8.040;2023-05-02T07:56:17;5.73;;;2.10;;
71366;SDS011;60030;52.274;8.040;2023-05-02T07:58:45;10.43;;;2.23;;
71366;SDS011;60030;52.274;8.040;2023-05-02T08:01:12;9.97;;;2.37;;
71366;SDS011;60030;52.274;8.040;2023-05-02T08:03:39;5.77;;;1.90;;
71366;SDS011;60030;52.274;8.040;2023-05-02T08:06:06;5.63;;;2.43;;
71366;SDS011;60030;52.274;8.040;2023-05-02T08:08:35;7.33;;;1.83;;
71366;SDS011;60030;52.274;8.040;2023-05-02T08:11:02;6.43;;;1.80;;
71366;SDS011;60030;52.274;8.040;2023-05-02T08:13:30;6.83;;;1.97;;
71366;SDS011;60030;52.274;8.040;2023-05-02T08:15:57;7.07;;;2.23;;
71366;SDS011;60030;52.274;8.040;2023-05-02T08:18:24;5.97;;;2.00;;
71366;SDS011;60030;52.274;8.040;2023-05-02T08:20:51;5.03;;;1.60;;
71366;SDS011;60030;52.274;8.040;2023-05-02T08:23:18;9.23;;;2.20;;
71366;SDS011;60030;52.274;8.040;2023-05-02T08:25:47;9.33;;;2.50;;
71366;SDS011;60030;52.274;8.040;2023-05-02T08:28:14;6.13;;;2.30;;
71366;SDS011;60030;52.274;8.040;2023-05-02T08:30:41;5.30;;;1.90;;
71366;SDS011;60030;52.274;8.040;2023-05-02T08:33:09;7.80;;;2.20;;
71366;SDS011;60030;52.274;8.040;2023-05-02T08:35:36;6.53;;;2.30;;
71366;SDS011;60030;52.274;8.040;2023-05-02T08:38:03;7.43;;;2.13;;
71366;SDS011;60030;52.274;8.040;2023-05-02T08:40:31;6.00;;;1.97;;
71366;SDS011;60030;52.274;8.040;2023-05-02T08:43:03;4.07;;;1.43;;
71366;SDS011;60030;52.274;8.040;2023-05-02T08:45:33;9.17;;;1.90;;
71366;SDS011;60030;52.274;8.040;2023-05-02T08:48:04;6.57;;;2.00;;
71366;SDS011;60030;52.274;8.040;2023-05-02T08:50:35;12.63;;;1.93;;
71366;SDS011;60030;52.274;8.040;2023-05-02T08:53:04;7.90;;;2.07;;
71366;SDS011;60030;52.274;8.040;2023-05-02T08:55:32;4.00;;;1.47;;
71366;SDS011;60030;52.274;8.040;2023-05-02T08:58:00;7.50;;;1.80;;
71366;SDS011;60030;52.274;8.040;2023-05-02T09:00:31;2.37;;;1.20;;
71366;SDS011;60030;52.274;8.040;2023-05-02T09:03:03;3.10;;;1.40;;
71366;SDS011;60030;52.274;8.040;2023-05-02T09:05:34;10.67;;;1.93;;
71366;SDS011;60030;52.274;8.040;2023-05-02T09:08:05;3.93;;;1.90;;
71366;SDS011;60030;52.274;8.040;2023-05-02T09:10:33;6.40;;;1.70;;
71366;SDS011;60030;52.274;8.040;2023-05-02T09:15:58;8.30;;;1.87;;
71366;SDS011;60030;52.274;8.040;2023-05-02T09:18:28;5.43;;;1.70;;
71366;SDS011;60030;52.274;8.040;2023-05-02T09:20:57;9.27;;;2.07;;
71366;SDS011;60030;52.274;8.040;2023-05-02T09:23:32;6.33;;;2.63;;
71366;SDS011;60030;52.274;8.040;2023-05-02T09:26:10;12.47;;;2.30;;
71366;SDS011;60030;52.274;8.040;2023-05-02T09:28:44;8.47;;;2.33;;
71366;SDS011;60030;52.274;8.040;2023-05-02T09:31:13;11.10;;;2.87;;
71366;SDS011;60030;52.274;8.040;2023-05-02T09:33:41;7.33;;;2.57;;
71366;SDS011;60030;52.274;8.040;2023-05-02T09:36:10;8.37;;;2.70;;
71366;SDS011;60030;52.274;8.040;2023-05-02T09:38:44;9.03;;;2.30;;
71366;SDS011;60030;52.274;8.040;2023-05-02T09:41:13;7.80;;;2.30;;
71366;SDS011;60030;52.274;8.040;2023-05-02T09:43:53;7.80;;;2.33;;
71366;SDS011;60030;52.274;8.040;2023-05-02T09:46:21;8.17;;;2.60;;
71366;SDS011;60030;52.274;8.040;2023-05-02T09:48:50;17.60;;;3.00;;
71366;SDS011;60030;52.274;8.040;2023-05-02T09:51:19;11.27;;;2.13;;
71366;SDS011;60030;52.274;8.040;2023-05-02T09:53:47;6.70;;;2.10;;
71366;SDS011;60030;52.274;8.040;2023-05-02T09:56:15;12.63;;;2.73;;
71366;SDS011;60030;52.274;8.040;2023-05-02T09:58:44;5.97;;;2.43;;
71366;SDS011;60030;52.274;8.040;2023-05-02T10:01:15;8.00;;;2.30;;
71366;SDS011;60030;52.274;8.040;2023-05-02T10:03:45;5.53;;;2.13;;
71366;SDS011;60030;52.274;8.040;2023-05-02T10:06:14;6.20;;;2.00;;
71366;SDS011;60030;52.274;8.040;2023-05-02T10:08:42;3.63;;;1.97;;
71366;SDS011;60030;52.274;8.040;2023-05-02T10:11:11;5.73;;;2.33;;
71366;SDS011;60030;52.274;8.040;2023-05-02T10:13:45;6.90;;;2.00;;
71366;SDS011;60030;52.274;8.040;2023-05-02T10:16:13;10.37;;;2.40;;
71366;SDS011;60030;52.274;8.040;2023-05-02T10:18:46;6.93;;;2.60;;
71366;SDS011;60030;52.274;8.040;2023-05-02T10:21:28;6.87;;;2.20;;
71366;SDS011;60030;52.274;8.040;2023-05-02T10:23:56;6.90;;;1.97;;
71366;SDS011;60030;52.274;8.040;2023-05-02T10:26:25;9.57;;;2.13;;
71366;SDS011;60030;52.274;8.040;2023-05-02T10:28:55;4.50;;;1.83;;
71366;SDS011;60030;52.274;8.040;2023-05-02T10:31:23;3.83;;;1.67;;
71366;SDS011;60030;52.274;8.040;2023-05-02T10:33:51;6.13;;;2.37;;
71366;SDS011;60030;52.274;8.040;2023-05-02T10:36:21;5.97;;;2.00;;
71366;SDS011;60030;52.274;8.040;2023-05-02T10:38:49;4.57;;;2.40;;
71366;SDS011;60030;52.274;8.040;2023-05-02T10:41:18;4.80;;;2.13;;
71366;SDS011;60030;52.274;8.040;2023-05-02T10:43:49;4.17;;;1.80;;
71366;SDS011;60030;52.274;8.040;2023-05-02T10:46:32;3.50;;;1.90;;
71366;SDS011;60030;52.274;8.040;2023-05-02T10:49:01;3.97;;;2.10;;
71366;SDS011;60030;52.274;8.040;2023-05-02T10:51:30;6.33;;;2.43;;
71366;SDS011;60030;52.274;8.040;2023-05-02T10:54:18;6.40;;;2.40;;
71366;SDS011;60030;52.274;8.040;2023-05-02T10:57:05;6.10;;;2.60;;
71366;SDS011;60030;52.274;8.040;2023-05-02T10:59:35;23.73;;;4.90;;
71366;SDS011;60030;52.274;8.040;2023-05-02T11:02:45;25.77;;;4.73;;
71366;SDS011;60030;52.274;8.040;2023-05-02T11:05:14;54.77;;;7.57;;
71366;SDS011;60030;52.274;8.040;2023-05-02T11:07:41;23.90;;;4.00;;
71366;SDS011;60030;52.274;8.040;2023-05-02T11:12:54;9.77;;;2.57;;
71366;SDS011;60030;52.274;8.040;2023-05-02T11:18:23;4.37;;;2.17;;
71366;SDS011;60030;52.274;8.040;2023-05-02T11:20:50;2.70;;;1.87;;
71366;SDS011;60030;52.274;8.040;2023-05-02T11:23:18;9.17;;;2.30;;
71366;SDS011;60030;52.274;8.040;2023-05-02T11:25:50;6.17;;;2.40;;
71366;SDS011;60030;52.274;8.040;2023-05-02T11:34:28;7.30;;;2.27;;
71366;SDS011;60030;52.274;8.040;2023-05-02T11:37:14;9.63;;;3.00;;
71366;SDS011;60030;52.274;8.040;2023-05-02T11:39:41;5.27;;;2.40;;
71366;SDS011;60030;52.274;8.040;2023-05-02T11:44:54;8.93;;;2.50;;
71366;SDS011;60030;52.274;8.040;2023-05-02T11:47:22;8.07;;;3.00;;
71366;SDS011;60030;52.274;8.040;2023-05-02T11:49:53;6.27;;;2.70;;
71366;SDS011;60030;52.274;8.040;2023-05-02T11:52:21;8.57;;;2.60;;
71366;SDS011;60030;52.274;8.040;2023-05-02T11:54:49;6.73;;;2.90;;
71366;SDS011;60030;52.274;8.040;2023-05-02T11:57:20;5.37;;;2.93;;
71366;SDS011;60030;52.274;8.040;2023-05-02T11:59:50;8.33;;;2.90;;
71366;SDS011;60030;52.274;8.040;2023-05-02T12:02:19;5.37;;;2.30;;
71366;SDS011;60030;52.274;8.040;2023-05-02T12:05:02;10.53;;;3.20;;
71366;SDS011;60030;52.274;8.040;2023-05-02T12:07:35;6.20;;;2.67;;
71366;SDS011;60030;52.274;8.040;2023-05-02T12:10:05;7.57;;;2.73;;
71366;SDS011;60030;52.274;8.040;2023-05-02T12:12:34;8.73;;;2.77;;
71366;SDS011;60030;52.274;8.040;2023-05-02T12:15:02;5.33;;;2.90;;
71366;SDS011;60030;52.274;8.040;2023-05-02T12:17:30;4.93;;;2.70;;
71366;SDS011;60030;52.274;8.040;2023-05-02T12:20:03;5.20;;;3.53;;
71366;SDS011;60030;52.274;8.040;2023-05-02T12:22:31;6.67;;;2.93;;
71366;SDS011;60030;52.274;8.040;2023-05-02T12:25:06;6.60;;;2.50;;
71366;SDS011;60030;52.274;8.040;2023-05-02T12:27:33;6.10;;;2.53;;
71366;SDS011;60030;52.274;8.040;2023-05-02T12:30:02;7.03;;;2.60;;
71366;SDS011;60030;52.274;8.040;2023-05-02T12:32:31;6.93;;;3.20;;
71366;SDS011;60030;52.274;8.040;2023-05-02T12:34:59;5.90;;;2.73;;
71366;SDS011;60030;52.274;8.040;2023-05-02T12:37:33;4.77;;;2.30;;
71366;SDS011;60030;52.274;8.040;2023-05-02T12:40:00;6.93;;;2.60;;
71366;SDS011;60030;52.274;8.040;2023-05-02T12:42:28;5.43;;;2.53;;
71366;SDS011;60030;52.274;8.040;2023-05-02T12:45:00;7.80;;;2.70;;
71366;SDS011;60030;52.274;8.040;2023-05-02T12:47:29;8.53;;;2.67;;
71366;SDS011;60030;52.274;8.040;2023-05-02T12:50:10;5.10;;;2.73;;
71366;SDS011;60030;52.274;8.040;2023-05-02T12:52:46;5.03;;;2.60;;
71366;SDS011;60030;52.274;8.040;2023-05-02T12:55:14;8.07;;;2.80;;
71366;SDS011;60030;52.274;8.040;2023-05-02T12:57:42;4.80;;;2.67;;
71366;SDS011;60030;52.274;8.040;2023-05-02T13:00:10;6.67;;;2.77;;
71366;SDS011;60030;52.274;8.040;2023-05-02T13:02:40;6.97;;;2.70;;
71366;SDS011;60030;52.274;8.040;2023-05-02T13:05:13;6.70;;;3.10;;
71366;SDS011;60030;52.274;8.040;2023-05-02T13:07:42;6.10;;;3.20;;
71366;SDS011;60030;52.274;8.040;2023-05-02T13:10:11;5.73;;;3.00;;
71366;SDS011;60030;52.274;8.040;2023-05-02T13:12:39;5.50;;;2.83;;
71366;SDS011;60030;52.274;8.040;2023-05-02T13:15:07;6.03;;;2.57;;
71366;SDS011;60030;52.274;8.040;2023-05-02T13:17:35;7.00;;;3.13;;
71366;SDS011;60030;52.274;8.040;2023-05-02T13:20:03;6.00;;;2.97;;
71366;SDS011;60030;52.274;8.040;2023-05-02T13:22:31;4.80;;;2.97;;
71366;SDS011;60030;52.274;8.040;2023-05-02T13:24:58;6.27;;;2.80;;
71366;SDS011;60030;52.274;8.040;2023-05-02T13:27:27;4.73;;;2.90;;
71366;SDS011;60030;52.274;8.040;2023-05-02T13:29:55;9.80;;;3.20;;
71366;SDS011;60030;52.274;8.040;2023-05-02T13:32:22;5.80;;;2.80;;
71366;SDS011;60030;52.274;8.040;2023-05-02T13:34:49;7.90;;;2.60;;
71366;SDS011;60030;52.274;8.040;2023-05-02T13:37:17;6.97;;;3.13;;
71366;SDS011;60030;52.274;8.040;2023-05-02T13:39:44;7.40;;;2.80;;
71366;SDS011;60030;52.274;8.040;2023-05-02T13:42:11;4.10;;;2.60;;
71366;SDS011;60030;52.274;8.040;2023-05-02T13:44:41;3.40;;;2.67;;
71366;SDS011;60030;52.274;8.040;2023-05-02T13:47:09;8.70;;;3.47;;
71366;SDS011;60030;52.274;8.040;2023-05-02T13:49:36;4.70;;;2.43;;
71366;SDS011;60030;52.274;8.040;2023-05-02T13:52:04;5.70;;;2.10;;
71366;SDS011;60030;52.274;8.040;2023-05-02T13:54:32;5.00;;;2.67;;
71366;SDS011;60030;52.274;8.040;2023-05-02T13:57:00;5.07;;;2.27;;
71366;SDS011;60030;52.274;8.040;2023-05-02T13:59:29;5.13;;;2.20;;
71366;SDS011;60030;52.274;8.040;2023-05-02T14:01:58;4.43;;;2.30;;
71366;SDS011;60030;52.274;8.040;2023-05-02T14:04:26;7.70;;;2.60;;
71366;SDS011;60030;52.274;8.040;2023-05-02T14:06:55;4.13;;;2.07;;
71366;SDS011;60030;52.274;8.040;2023-05-02T14:09:23;3.70;;;2.57;;
71366;SDS011;60030;52.274;8.040;2023-05-02T14:11:51;4.17;;;2.37;;
71366;SDS011;60030;52.274;8.040;2023-05-02T14:14:19;4.03;;;2.37;;
71366;SDS011;60030;52.274;8.040;2023-05-02T14:16:47;3.85;;;2.42;;
71366;SDS011;60030;52.274;8.040;2023-05-02T14:19:16;6.43;;;2.63;;
71366;SDS011;60030;52.274;8.040;2023-05-02T14:21:44;5.37;;;2.40;;
71366;SDS011;60030;52.274;8.040;2023-05-02T14:24:11;3.53;;;1.80;;
71366;SDS011;60030;52.274;8.040;2023-05-02T14:26:40;6.70;;;2.40;;
71366;SDS011;60030;52.274;8.040;2023-05-02T14:29:07;7.27;;;2.20;;
71366;SDS011;60030;52.274;8.040;2023-05-02T14:31:34;4.43;;;1.92;;
71366;SDS011;60030;52.274;8.040;2023-05-02T14:34:02;4.28;;;2.00;;
71366;SDS011;60030;52.274;8.040;2023-05-02T14:36:31;4.47;;;2.15;;
71366;SDS011;60030;52.274;8.040;2023-05-02T14:38:58;3.67;;;2.40;;
71366;SDS011;60030;52.274;8.040;2023-05-02T14:41:25;3.37;;;2.20;;
71366;SDS011;60030;52.274;8.040;2023-05-02T14:43:53;2.83;;;1.80;;
71366;SDS011;60030;52.274;8.040;2023-05-02T14:46:20;3.00;;;1.60;;
71366;SDS011;60030;52.274;8.040;2023-05-02T14:48:48;4.80;;;2.00;;
71366;SDS011;60030;52.274;8.040;2023-05-02T14:51:15;3.30;;;1.47;;
71366;SDS011;60030;52.274;8.040;2023-05-02T14:53:44;3.70;;;1.80;;
71366;SDS011;60030;52.274;8.040;2023-05-02T14:56:13;2.93;;;1.93;;
71366;SDS011;60030;52.274;8.040;2023-05-02T14:58:43;4.73;;;1.70;;
71366;SDS011;60030;52.274;8.040;2023-05-02T15:01:16;5.00;;;1.83;;
71366;SDS011;60030;52.274;8.040;2023-05-02T15:03:44;2.10;;;1.43;;
71366;SDS011;60030;52.274;8.040;2023-05-02T15:06:13;3.07;;;1.90;;
71366;SDS011;60030;52.274;8.040;2023-05-02T15:08:41;3.37;;;1.67;;